Time;durP1;ratioP1;P1;durP2;ratioP2;P2;SDS_P1;SDS_P2;PMS_P1;PMS_P2;Temp;Humidity;BMP_temperature;BMP_pressure;BME280_temperature;BME280_humidity;BME280_pressure;Samples;Min_cycle;Max_cycle;Signal;HPM_P1;HPM_P2
2022/09/15 00:00:59;;;;;;;13.52;7.07;;;;;;;17.95;100.00;98651.06;12224616;19;20017;-85
2022/09/15 00:05:01;;;;;;;12.83;7.50;;;;;;;17.96;100.00;98649.91;12194361;19;20502;-84
2022/09/15 00:09:03;;;;;;;17.70;7.13;;;;;;;17.98;100.00;98650.41;12220878;19;20010;-85
2022/09/15 00:13:05;;;;;;;8.50;5.33;;;;;;;17.98;100.00;98656.00;12212966;19;20010;-83
2022/09/15 00:17:06;;;;;;;14.48;6.50;;;;;;;17.97;100.00;98649.59;12201953;19;20010;-83
2022/09/15 00:21:15;;;;;;;12.80;6.63;;;;;;;17.96;100.00;98647.13;12221106;19;20038;-83
2022/09/15 00:25:17;;;;;;;21.48;8.10;;;;;;;17.95;100.00;98642.72;12218914;19;19998;-83
2022/09/15 00:29:18;;;;;;;15.10;6.38;;;;;;;17.93;100.00;98639.41;12196685;19;20006;-83
2022/09/15 00:33:21;;;;;;;12.25;6.72;;;;;;;17.94;100.00;98632.72;12212306;19;20007;-83
2022/09/15 00:37:23;;;;;;;;;;;;;;;17.91;100.00;98627.81;12218665;19;20762;-83
2022/09/15 00:41:25;;;;;;;9.52;5.50;;;;;;;17.94;100.00;98633.53;12197813;19;19942;-83
2022/09/15 00:45:27;;;;;;;11.02;5.30;;;;;;;17.93;100.00;98631.88;12219572;19;20518;-84
2022/09/15 00:49:32;;;;;;;9.93;4.57;;;;;;;17.93;100.00;98626.31;12207905;19;20003;-84
2022/09/15 00:53:34;;;;;;;9.30;4.35;;;;;;;17.93;100.00;98629.09;12223967;19;20006;-84
2022/09/15 00:57:41;;;;;;;7.97;4.17;;;;;;;17.93;100.00;98619.91;12218630;19;20028;-85
2022/09/15 01:01:45;;;;;;;10.98;4.65;;;;;;;17.96;100.00;98622.03;12191892;19;20011;-84
2022/09/15 01:05:53;;;;;;;7.07;4.03;;;;;;;17.98;100.00;98619.75;12214187;19;20010;-85
2022/09/15 01:09:58;;;;;;;8.05;4.43;;;;;;;18.02;100.00;98622.69;12213855;19;20798;-84
2022/09/15 01:14:00;;;;;;;10.68;5.25;;;;;;;18.02;100.00;98617.94;12197698;19;20027;-84
2022/09/15 01:18:18;;;;;;;15.25;6.00;;;;;;;18.02;100.00;98620.72;12212570;19;20014;-86
2022/09/15 01:22:54;;;;;;;9.85;5.25;;;;;;;18.03;100.00;98625.19;12216520;19;20353;-83
2022/09/15 01:27:05;;;;;;;13.52;5.78;;;;;;;17.98;100.00;98619.75;12190918;19;20025;-84
2022/09/15 01:31:35;;;;;;;11.80;5.40;;;;;;;18.00;100.00;98611.91;12210845;19;20007;-84
2022/09/15 01:36:10;;;;;;;14.98;6.18;;;;;;;18.01;100.00;98613.53;12184921;19;20538;-84
2022/09/15 01:40:14;;;;;;;17.67;6.72;;;;;;;18.04;100.00;98621.22;12226815;19;20186;-86
2022/09/15 01:44:23;;;;;;;13.85;7.22;;;;;;;18.03;100.00;98602.06;12199775;19;20018;-85
2022/09/15 01:48:27;;;;;;;20.05;8.00;;;;;;;18.03;100.00;98602.88;12217665;19;20010;-86
2022/09/15 01:52:29;;;;;;;16.92;8.27;;;;;;;18.04;100.00;98598.94;12202605;19;20553;-87
2022/09/15 01:56:31;;;;;;;;;;;;;;;18.02;100.00;98592.84;12214130;19;20003;-85
2022/09/15 02:00:40;;;;;;;17.63;8.88;;;;;;;18.04;100.00;98596.16;12215323;19;19922;-83
2022/09/15 02:04:54;;;;;;;24.90;9.02;;;;;;;18.08;100.00;98594.31;12192909;19;20006;-86
2022/09/15 02:09:01;;;;;;;21.52;10.20;;;;;;;18.11;100.00;98590.06;12222522;19;20002;-84
2022/09/15 02:13:16;;;;;;;20.50;10.30;;;;;;;18.14;100.00;98584.63;12209198;19;20070;-86
2022/09/15 02:17:20;;;;;;;30.20;12.40;;;;;;;18.09;100.00;98589.59;12195754;19;20022;-85
2022/09/15 02:21:35;;;;;;;33.67;15.52;;;;;;;18.09;100.00;98584.03;12214304;19;20056;-86
2022/09/15 02:25:44;;;;;;;33.25;14.80;;;;;;;18.11;100.00;98579.72;12188521;19;20372;-84
2022/09/15 02:29:47;;;;;;;35.92;16.27;;;;;;;18.11;100.00;98588.09;12210987;19;20015;-86
2022/09/15 02:33:57;;;;;;;40.95;17.55;;;;;;;18.13;100.00;98580.22;12225885;19;20609;-85
2022/09/15 02:38:01;;;;;;;28.60;14.00;;;;;;;18.14;100.00;98592.19;12203599;19;20031;-83
2022/09/15 02:42:03;;;;;;;39.17;16.65;;;;;;;18.13;100.00;98585.00;12223730;19;20046;-85
2022/09/15 02:46:05;;;;;;;44.92;17.23;;;;;;;18.10;100.00;98597.63;12240273;19;20040;-84
2022/09/15 02:50:09;;;;;;;36.15;15.63;;;;;;;18.04;100.00;98593.34;12221397;19;20046;-84
2022/09/15 02:54:12;;;;;;;30.30;13.13;;;;;;;17.98;100.00;98603.03;12243823;19;20002;-84
2022/09/15 02:58:14;;;;;;;34.13;14.03;;;;;;;17.91;100.00;98602.72;12238532;19;20064;-85
2022/09/15 03:02:20;;;;;;;43.55;16.83;;;;;;;17.87;100.00;98613.69;12207870;19;20010;-86
2022/09/15 03:06:24;;;;;;;25.15;12.00;;;;;;;17.84;100.00;98607.94;12231136;19;20010;-85
2022/09/15 03:10:27;;;;;;;22.58;9.30;;;;;;;17.78;100.00;98607.28;12260293;19;20014;-84
2022/09/15 03:14:31;;;;;;;23.08;8.75;;;;;;;17.73;100.00;98618.56;12218404;19;20040;-85
2022/09/15 03:18:33;;;;;;;20.02;8.35;;;;;;;17.69;100.00;98623.16;12237515;19;20003;-85
2022/09/15 03:22:34;;;;;;;12.80;6.07;;;;;;;17.66;100.00;98627.41;12212509;19;20027;-86
2022/09/15 03:26:36;;;;;;;11.93;5.80;;;;;;;17.63;100.00;98639.19;12231681;19;20003;-86
2022/09/15 03:30:38;;;;;;;9.52;4.00;;;;;;;17.57;100.00;98631.31;12228492;19;20033;-85
2022/09/15 03:34:40;;;;;;;5.70;3.08;;;;;;;17.48;100.00;98637.69;12215637;19;20010;-85
2022/09/15 03:38:41;;;;;;;9.50;3.70;;;;;;;17.37;100.00;98641.94;12230976;19;20007;-85
2022/09/15 03:42:43;;;;;;;6.43;2.70;;;;;;;17.35;100.00;98655.34;12226799;19;20011;-85
2022/09/15 03:46:45;;;;;;;10.52;2.92;;;;;;;17.36;100.00;98645.03;12198839;19;20003;-84
2022/09/15 03:50:47;;;;;;;4.57;1.65;;;;;;;17.37;100.00;98646.66;12220658;19;20037;-86
2022/09/15 03:54:48;;;;;;;2.93;1.40;;;;;;;17.28;100.00;98653.03;12221930;19;20012;-86
2022/09/15 03:58:51;;;;;;;3.15;1.50;;;;;;;17.21;100.00;98655.47;12200290;19;20209;-86
2022/09/15 04:02:55;;;;;;;3.05;1.10;;;;;;;17.16;100.00;98649.22;12238841;19;20411;-85
2022/09/15 04:06:56;;;;;;;;;;;;;;;17.07;100.00;98657.53;12224845;19;20011;-85
2022/09/15 04:11:03;;;;;;;3.20;1.02;;;;;;;17.00;100.00;98657.19;12200305;19;20691;-84
2022/09/15 04:15:06;;;;;;;3.97;1.30;;;;;;;16.95;100.00;98651.75;12229279;19;20031;-84
2022/09/15 04:19:08;;;;;;;3.95;1.20;;;;;;;16.96;100.00;98661.75;12224437;19;20034;-84
2022/09/15 04:23:10;;;;;;;2.95;1.48;;;;;;;16.89;100.00;98669.72;12202339;19;20041;-84
2022/09/15 04:27:12;;;;;;;3.25;1.67;;;;;;;16.84;100.00;98671.50;12219463;19;20002;-85
2022/09/15 04:31:15;;;;;;;11.50;3.27;;;;;;;16.81;100.00;98674.94;12215801;19;20007;-85
2022/09/15 04:35:17;;;;;;;;;;;;;;;16.65;100.00;98687.53;12176575;19;20010;-83
2022/09/15 04:39:19;;;;;;;9.43;4.30;;;;;;;16.56;100.00;98679.16;12218268;19;19983;-84
2022/09/15 04:43:21;;;;;;;11.30;5.30;;;;;;;16.50;100.00;98693.50;12214296;19;20075;-84
2022/09/15 04:47:22;;;;;;;11.40;5.30;;;;;;;16.47;100.00;98708.03;12193263;19;20003;-84
2022/09/15 04:51:26;;;;;;;13.52;6.03;;;;;;;16.37;100.00;98701.59;12217094;19;20007;-83
2022/09/15 04:55:31;;;;;;;13.15;6.28;;;;;;;16.30;100.00;98711.50;12211989;19;20003;-84
2022/09/15 04:59:33;;;;;;;17.80;6.15;;;;;;;16.18;100.00;98717.59;12195365;19;20453;-83
2022/09/15 05:03:36;;;;;;;24.08;7.50;;;;;;;16.14;100.00;98724.94;12212616;19;20031;-84
2022/09/15 05:07:38;;;;;;;34.53;11.38;;;;;;;16.13;100.00;98726.09;12196967;19;20042;-84
2022/09/15 05:11:39;;;;;;;22.02;8.88;;;;;;;16.06;100.00;98729.28;12215511;19;20066;-84
2022/09/15 05:15:41;;;;;;;23.52;10.05;;;;;;;15.98;100.00;98741.13;12215028;19;20026;-83
2022/09/15 05:19:43;;;;;;;37.38;10.48;;;;;;;15.88;100.00;98742.19;12195238;19;20020;-83
2022/09/15 05:23:45;;;;;;;28.75;11.48;;;;;;;15.89;100.00;98749.38;12217822;19;20003;-83
2022/09/15 05:27:47;;;;;;;38.10;12.75;;;;;;;15.84;100.00;98757.81;12218792;19;20011;-82
2022/09/15 05:31:48;;;;;;;35.05;12.10;;;;;;;15.82;100.00;98756.47;12204979;19;20025;-83
2022/09/15 05:35:58;;;;;;;34.13;11.77;;;;;;;15.78;100.00;98764.63;12224854;19;20010;-84
2022/09/15 05:40:00;;;;;;;23.55;10.30;;;;;;;15.69;100.00;98760.91;12219678;19;20007;-79
2022/09/15 05:44:10;;;;;;;27.52;10.55;;;;;;;15.67;100.00;98774.25;12200461;19;20035;-80
2022/09/15 05:48:12;;;;;;;24.13;10.65;;;;;;;15.65;100.00;98777.34;12216925;19;20495;-81
2022/09/15 05:52:13;;;;;;;28.02;10.68;;;;;;;15.61;100.00;98781.03;12213569;19;20003;-81
2022/09/15 05:56:16;;;;;;;27.08;11.13;;;;;;;15.65;100.00;98787.63;12188535;19;20398;-80
2022/09/15 06:00:17;;;;;;;30.02;11.38;;;;;;;15.65;100.00;98793.19;12213059;19;20015;-81
2022/09/15 06:04:19;;;;;;;27.65;11.52;;;;;;;15.66;100.00;98794.84;12207555;19;20050;-81
2022/09/15 06:08:21;;;;;;;21.92;10.63;;;;;;;15.68;100.00;98803.72;12191533;19;20363;-81
2022/09/15 06:12:22;;;;;;;22.48;10.75;;;;;;;15.69;100.00;98806.16;12214042;19;20033;-81
2022/09/15 06:16:25;;;;;;;33.30;12.45;;;;;;;15.71;100.00;98819.75;12227592;19;20019;-80
2022/09/15 06:20:27;;;;;;;30.08;12.10;;;;;;;15.72;100.00;98822.22;12198751;19;20079;-80
2022/09/15 06:24:28;;;;;;;33.25;12.57;;;;;;;15.77;100.00;98826.03;12220878;19;20020;-80
2022/09/15 06:28:30;;;;;;;30.92;12.15;;;;;;;15.82;100.00;98826.75;12221812;19;20014;-80
2022/09/15 06:32:32;;;;;;;30.52;12.18;;;;;;;15.84;100.00;98826.44;12200268;19;20037;-80
2022/09/15 06:36:35;;;;;;;27.42;12.05;;;;;;;15.84;100.00;98830.03;12218919;19;20010;-81
2022/09/15 06:40:37;;;;;;;;;;;;;;;15.86;100.00;98835.31;12202149;19;20470;-77
2022/09/15 06:44:38;;;;;;;32.53;12.43;;;;;;;15.94;100.00;98831.78;12213658;19;19915;-81
2022/09/15 06:48:41;;;;;;;27.58;12.38;;;;;;;16.01;100.00;98834.16;12215701;19;20094;-79
2022/09/15 06:52:48;;;;;;;31.25;13.27;;;;;;;16.06;100.00;98837.66;12198525;19;20014;-80
2022/09/15 06:56:49;;;;;;;34.10;13.73;;;;;;;16.13;100.00;98837.25;12219184;19;20111;-80
2022/09/15 07:00:51;;;;;;;27.42;12.32;;;;;;;16.21;100.00;98836.53;12221045;19;20094;-82
2022/09/15 07:04:53;;;;;;;26.55;11.77;;;;;;;16.34;100.00;98846.78;12195971;19;20022;-81
2022/09/15 07:08:55;;;;;;;32.97;12.18;;;;;;;16.47;100.00;98852.63;12222076;19;20031;-80
2022/09/15 07:12:57;;;;;;;30.90;12.20;;;;;;;16.56;100.00;98859.91;12216980;19;20010;-81
2022/09/15 07:16:59;;;;;;;29.92;11.68;;;;;;;16.65;100.00;98865.56;12199901;19;20014;-82
2022/09/15 07:21:06;;;;;;;25.70;11.70;;;;;;;16.73;100.00;98866.78;12222016;19;20078;-79
2022/09/15 07:25:08;;;;;;;21.40;11.25;;;;;;;16.83;100.00;98867.38;12264331;19;20044;-78
2022/09/15 07:29:09;;;;;;;25.38;10.98;;;;;;;16.95;100.00;98869.63;12244984;19;20574;-79
2022/09/15 07:33:12;;;;;;;32.28;12.82;;;;;;;17.17;100.00;98863.25;12266230;19;20046;-79
2022/09/15 07:37:15;;;;;;;19.30;9.55;;;;;;;17.27;100.00;98870.50;12269014;19;20474;-80
2022/09/15 07:41:19;;;;;;;16.35;9.75;;;;;;;17.44;100.00;98872.59;12245330;19;20007;-79
2022/09/15 07:45:21;;;;;;;15.68;8.45;;;;;;;17.62;100.00;98884.66;12225414;19;20017;-81
2022/09/15 07:49:23;;;;;;;14.95;8.02;;;;;;;17.77;100.00;98899.03;12221277;19;20011;-83
2022/09/15 07:53:28;;;;;;;15.68;7.47;;;;;;;17.92;100.00;98902.56;12201174;19;20541;-80
2022/09/15 07:57:30;;;;;;;16.02;7.75;;;;;;;17.98;100.00;98904.06;12224146;19;20323;-82
2022/09/15 08:01:32;;;;;;;11.77;6.13;;;;;;;18.03;100.00;98911.47;12224158;19;20006;-82
2022/09/15 08:05:33;;;;;;;13.40;5.55;;;;;;;17.99;100.00;98916.84;12198929;19;20370;-81
2022/09/15 08:09:41;;;;;;;9.00;4.40;;;;;;;17.87;100.00;98920.22;12222040;19;20010;-85
2022/09/15 08:13:43;;;;;;;9.23;5.00;;;;;;;17.81;100.00;98912.31;12197510;19;20098;-82
2022/09/15 08:17:45;;;;;;;10.10;4.40;;;;;;;17.88;100.00;98919.09;12220778;19;20007;-83
2022/09/15 08:21:47;;;;;;;13.80;5.10;;;;;;;18.04;100.00;98927.03;12221771;19;20018;-83
2022/09/15 08:25:50;;;;;;;6.35;3.63;;;;;;;18.16;100.00;98932.84;12199710;19;20359;-83
2022/09/15 08:29:52;;;;;;;5.22;3.15;;;;;;;18.24;100.00;98937.63;12220710;19;20033;-84
2022/09/15 08:33:54;;;;;;;12.27;3.58;;;;;;;18.32;100.00;98942.44;12218090;19;20033;-83
2022/09/15 08:37:56;;;;;;;7.82;3.17;;;;;;;18.45;100.00;98940.66;12196920;19;20060;-83
2022/09/15 08:42:00;;;;;;;6.63;3.05;;;;;;;18.55;100.00;98951.50;12221348;19;20006;-83
2022/09/15 08:46:05;;;;;;;5.53;3.13;;;;;;;18.65;100.00;98948.44;12216660;19;20007;-82
2022/09/15 08:50:34;;;;;;;5.47;2.47;;;;;;;18.75;100.00;98947.31;12196204;19;20015;-82
2022/09/15 08:54:37;;;;;;;6.55;2.97;;;;;;;18.76;100.00;98951.75;12223155;19;20664;-84
2022/09/15 08:58:39;;;;;;;4.18;2.80;;;;;;;18.73;100.00;98949.63;12217813;19;20019;-84
2022/09/15 09:03:04;;;;;;;6.87;3.33;;;;;;;18.79;100.00;98956.69;12234037;19;20028;-84
2022/09/15 09:07:08;;;;;;;5.82;3.28;;;;;;;18.78;100.00;98954.22;12230123;19;20010;-83
2022/09/15 09:11:22;;;;;;;7.50;2.65;;;;;;;18.88;100.00;98965.91;12203834;19;20003;-82
2022/09/15 09:15:40;;;;;;;6.82;3.03;;;;;;;19.04;100.00;98957.06;12225385;19;20006;-83
2022/09/15 09:20:11;;;;;;;9.98;3.58;;;;;;;19.08;100.00;98960.84;12200539;19;20467;-83
2022/09/15 09:24:16;;;;;;;3.65;2.72;;;;;;;18.98;100.00;98950.00;12224965;19;20019;-82
2022/09/15 09:28:41;;;;;;;8.65;3.30;;;;;;;18.88;100.00;98960.31;12217403;19;20062;-82
2022/09/15 09:32:49;;;;;;;4.97;2.97;;;;;;;18.80;100.00;98963.09;12194023;19;20076;-82
2022/09/15 09:36:57;;;;;;;6.93;2.90;;;;;;;18.65;100.00;98981.09;12217490;19;20006;-82
2022/09/15 09:40:59;;;;;;;8.93;2.97;;;;;;;18.63;100.00;98989.78;12193982;19;20082;-80
2022/09/15 09:45:04;;;;;;;7.03;2.88;;;;;;;18.72;100.00;98977.84;12217397;19;20010;-83
2022/09/15 09:49:22;;;;;;;6.15;2.22;;;;;;;18.94;100.00;98974.13;12223304;19;20010;-81
2022/09/15 09:53:35;;;;;;;7.57;2.92;;;;;;;19.00;100.00;98976.44;12212505;19;20010;-83
2022/09/15 09:57:36;;;;;;;8.02;2.80;;;;;;;18.89;100.00;98975.94;12237719;19;20014;-83
2022/09/15 10:02:04;;;;;;;8.95;3.05;;;;;;;18.74;100.00;98972.75;12210307;19;20011;-84
2022/09/15 10:06:09;;;;;;;5.65;2.92;;;;;;;18.70;100.00;98982.91;12234114;19;20021;-82
2022/09/15 10:10:31;;;;;;;5.93;3.38;;;;;;;18.63;100.00;98978.63;12237975;19;20030;-82
2022/09/15 10:14:39;;;;;;;7.18;3.42;;;;;;;18.60;100.00;98979.25;12218993;19;20081;-83
2022/09/15 10:18:40;;;;;;;4.65;2.75;;;;;;;18.66;100.00;98982.72;12256618;19;20023;-83
2022/09/15 10:22:42;;;;;;;7.10;3.00;;;;;;;18.95;100.00;98989.72;12234431;19;20047;-83
2022/09/15 10:26:44;;;;;;;7.85;3.08;;;;;;;19.15;100.00;98988.28;12251104;19;20456;-82
2022/09/15 10:31:09;;;;;;;6.43;2.50;;;;;;;19.40;100.00;98981.91;12243006;19;20073;-82
2022/09/15 10:35:13;;;;;;;4.78;2.85;;;;;;;19.85;98.19;98972.34;12216767;19;20021;-82
2022/09/15 10:39:58;;;;;;;5.32;2.13;;;;;;;19.93;94.32;98982.66;12242216;19;20006;-81
2022/09/15 10:44:27;;;;;;;5.78;2.50;;;;;;;20.22;92.08;98984.75;12217161;19;20014;-80
2022/09/15 10:48:51;;;;;;;3.83;2.58;;;;;;;20.76;84.68;98995.41;12240839;19;20007;-81
2022/09/15 10:53:10;;;;;;;5.50;3.20;;;;;;;20.76;80.02;98996.22;12222604;19;20004;-79
2022/09/15 10:57:29;;;;;;;6.00;2.95;;;;;;;20.79;78.27;98997.53;12237867;19;20011;-82
2022/09/15 11:01:57;;;;;;;6.38;3.67;;;;;;;20.88;78.43;98987.94;12245752;19;20043;-82
2022/09/15 11:06:05;;;;;;;7.65;3.63;;;;;;;21.24;77.68;98989.34;12221597;19;20007;-79
2022/09/15 11:10:36;;;;;;;6.93;3.83;;;;;;;21.78;74.41;98985.81;12237010;19;20015;-83
2022/09/15 11:15:10;;;;;;;11.05;4.25;;;;;;;21.15;70.66;98985.81;12217812;19;20579;-79
2022/09/15 11:19:21;;;;;;;6.18;3.70;;;;;;;20.67;73.55;98990.69;12233864;19;20102;-82
2022/09/15 11:23:31;;;;;;;7.32;4.25;;;;;;;21.09;74.20;98984.34;12211241;19;20010;-81
2022/09/15 11:27:39;;;;;;;8.13;5.05;;;;;;;21.24;72.11;98988.50;12230383;19;20093;-79
2022/09/15 11:31:46;;;;;;;7.45;5.40;;;;;;;21.22;70.61;98988.88;12211489;19;20044;-80
2022/09/15 11:36:14;;;;;;;8.65;5.88;;;;;;;21.42;71.20;98986.44;12232010;19;20018;-78
2022/09/15 11:40:22;;;;;;;9.57;5.95;;;;;;;22.46;69.04;98980.63;12231935;19;20383;-79
2022/09/15 11:44:30;;;;;;;9.77;6.20;;;;;;;23.44;68.44;98971.31;12212647;19;20017;-81
2022/09/15 11:48:44;;;;;;;9.18;5.80;;;;;;;24.36;59.57;98977.91;12227198;19;20066;-78
2022/09/15 11:52:56;;;;;;;9.23;6.60;;;;;;;23.79;60.39;98985.59;12209645;19;20006;-80
2022/09/15 11:56:59;;;;;;;8.68;6.28;;;;;;;23.01;61.01;98991.66;12230658;19;20399;-79
2022/09/15 12:01:13;;;;;;;11.07;7.57;;;;;;;22.05;63.80;98990.78;12227824;19;20029;-80
2022/09/15 12:05:27;;;;;;;10.40;6.88;;;;;;;21.26;65.92;98994.59;12202527;19;20776;-77
2022/09/15 12:09:29;;;;;;;13.15;7.90;;;;;;;20.92;67.21;99000.09;12226163;19;20078;-78
2022/09/15 12:13:31;;;;;;;12.05;7.57;;;;;;;20.91;70.17;99008.81;12223962;19;20027;-80
2022/09/15 12:17:43;;;;;;;11.07;7.57;;;;;;;21.30;65.53;99009.59;12202979;19;20002;-82
2022/09/15 12:22:05;;;;;;;13.45;7.88;;;;;;;21.54;63.59;98997.72;12223901;19;20010;-79
2022/09/15 12:26:13;;;;;;;11.20;7.20;;;;;;;21.87;64.36;99005.34;12203429;19;20042;-81
2022/09/15 12:30:37;;;;;;;9.98;6.68;;;;;;;21.84;63.81;99006.84;12225334;19;20007;-79
2022/09/15 12:34:39;;;;;;;11.27;6.68;;;;;;;21.81;63.08;99005.56;12200513;19;20006;-80
2022/09/15 12:38:46;;;;;;;14.13;6.95;;;;;;;21.95;61.13;99010.88;12210206;19;20198;-78
2022/09/15 12:42:48;;;;;;;8.73;6.57;;;;;;;22.28;60.98;99015.69;12221584;19;20006;-79
2022/09/15 12:46:54;;;;;;;8.83;6.50;;;;;;;22.38;60.71;99015.22;12200009;19;20015;-80
2022/09/15 12:51:11;;;;;;;9.00;5.10;;;;;;;22.35;56.87;99017.91;12218289;19;20007;-79
2022/09/15 12:55:22;;;;;;;7.85;4.05;;;;;;;22.50;55.52;99006.00;12221232;19;20010;-78
2022/09/15 12:59:27;;;;;;;7.40;4.38;;;;;;;22.72;54.46;99005.53;12206806;19;20006;-80
2022/09/15 13:03:39;;;;;;;6.90;4.10;;;;;;;23.33;51.10;99003.91;12260518;19;20051;-81
2022/09/15 13:08:00;;;;;;;7.22;3.63;;;;;;;23.65;46.30;99010.50;12240818;19;20387;-81
2022/09/15 13:12:04;;;;;;;5.60;3.50;;;;;;;23.63;47.85;99016.47;12262220;19;20018;-79
2022/09/15 13:16:13;;;;;;;5.20;3.80;;;;;;;22.96;47.54;99023.59;12254036;19;20021;-80
2022/09/15 13:20:24;;;;;;;7.57;4.35;;;;;;;22.34;50.21;99022.72;12216351;19;20040;-79
2022/09/15 13:24:53;;;;;;;7.78;4.10;;;;;;;21.92;52.48;99028.41;12215093;19;20011;-85
2022/09/15 13:29:05;;;;;;;7.10;4.15;;;;;;;22.19;52.67;99029.81;12199625;19;20027;-78
2022/09/15 13:33:49;;;;;;;7.07;3.83;;;;;;;21.83;52.08;99028.47;12219300;19;20031;-78
2022/09/15 13:38:22;;;;;;;6.35;4.13;;;;;;;21.13;54.44;99030.13;12197581;19;20018;-80
2022/09/15 13:42:41;;;;;;;6.20;3.60;;;;;;;20.84;53.84;99034.56;12217747;19;20086;-81
2022/09/15 13:47:01;;;;;;;7.35;3.70;;;;;;;20.57;55.27;99033.03;12194924;19;20033;-79
2022/09/15 13:51:28;;;;;;;7.40;3.50;;;;;;;20.41;56.72;99029.94;12223039;19;20014;-79
2022/09/15 13:55:35;;;;;;;8.95;4.10;;;;;;;20.61;56.37;99035.97;12221647;19;20074;-78
2022/09/15 13:59:37;;;;;;;5.97;3.17;;;;;;;20.84;54.75;99039.34;12195550;19;20307;-81
2022/09/15 14:03:41;;;;;;;5.25;3.25;;;;;;;21.00;52.41;99033.97;12215993;19;20017;-78
2022/09/15 14:07:56;;;;;;;5.38;3.28;;;;;;;21.02;51.26;99034.47;12196224;19;20022;-78
2022/09/15 14:12:08;;;;;;;5.75;3.35;;;;;;;20.87;52.99;99033.06;12217846;19;20015;-81
2022/09/15 14:16:24;;;;;;;10.68;3.40;;;;;;;20.94;54.72;99037.00;12217215;19;20011;-78
2022/09/15 14:20:25;;;;;;;5.45;3.17;;;;;;;21.13;55.07;99027.34;12193243;19;20018;-80
2022/09/15 14:24:29;;;;;;;8.65;3.30;;;;;;;21.22;53.30;99027.28;12216872;19;20011;-79
2022/09/15 14:28:31;;;;;;;5.55;3.45;;;;;;;21.40;52.88;99028.81;12217385;19;20042;-78
2022/09/15 14:32:38;;;;;;;5.93;3.30;;;;;;;21.84;51.63;99024.50;12197265;19;20457;-82
2022/09/15 14:36:42;;;;;;;4.90;3.22;;;;;;;21.65;51.94;99032.56;12225455;19;20006;-78
2022/09/15 14:40:51;;;;;;;7.10;3.45;;;;;;;21.30;52.34;99030.03;12207316;19;20013;-82
2022/09/15 14:44:52;;;;;;;4.50;3.63;;;;;;;21.09;52.94;99031.94;12229434;19;20674;-78
2022/09/15 14:49:15;;;;;;;6.03;3.15;;;;;;;21.10;53.10;99026.03;12230687;19;20034;-79
2022/09/15 14:53:21;;;;;;;9.20;3.72;;;;;;;21.23;52.02;99015.72;12207151;19;20074;-80
2022/09/15 14:57:26;;;;;;;5.93;3.30;;;;;;;21.39;51.57;99019.59;12227884;19;20010;-80
2022/09/15 15:01:36;;;;;;;5.55;3.80;;;;;;;21.51;51.12;99012.44;12227817;19;20098;-81
2022/09/15 15:05:44;;;;;;;7.57;4.00;;;;;;;21.69;51.32;99015.91;12202750;19;20011;-79
2022/09/15 15:09:55;;;;;;;6.25;3.70;;;;;;;21.56;51.89;99012.19;12227199;19;20401;-81
2022/09/15 15:13:57;;;;;;;5.82;3.75;;;;;;;21.40;53.24;99017.59;12201186;19;20027;-79
2022/09/15 15:17:59;;;;;;;4.82;3.38;;;;;;;21.23;53.74;99014.91;12226169;19;20007;-78
2022/09/15 15:22:10;;;;;;;5.13;2.80;;;;;;;21.09;54.26;99015.16;12227040;19;20003;-79
2022/09/15 15:26:33;;;;;;;5.97;3.70;;;;;;;20.96;54.80;99007.81;12203969;19;20684;-78
2022/09/15 15:30:45;;;;;;;5.45;3.20;;;;;;;20.78;55.38;99012.69;12225784;19;20459;-80
2022/09/15 15:34:50;;;;;;;5.03;3.40;;;;;;;20.54;56.02;99014.13;12202198;19;20006;-80
2022/09/15 15:38:54;;;;;;;7.88;3.58;;;;;;;20.35;55.65;99020.09;12228353;19;20026;-78
2022/09/15 15:43:02;;;;;;;5.10;2.90;;;;;;;20.08;54.17;99021.31;12226482;19;20081;-80
2022/09/15 15:47:13;;;;;;;9.90;3.22;;;;;;;19.94;54.02;99021.50;12203384;19;20379;-79
2022/09/15 15:51:14;;;;;;;5.68;3.60;;;;;;;19.86;55.43;99025.13;12225010;19;20003;-78
2022/09/15 15:55:25;;;;;;;5.18;3.20;;;;;;;19.82;55.99;99026.13;12223887;19;20346;-80
2022/09/15 15:59:27;;;;;;;5.72;3.08;;;;;;;19.79;56.13;99027.59;12203087;19;22101;-79
2022/09/15 16:03:28;;;;;;;5.03;2.70;;;;;;;19.72;56.35;99019.72;12223002;19;20088;-78
2022/09/15 16:07:31;;;;;;;6.85;2.92;;;;;;;19.74;56.71;99023.00;12221075;19;20041;-80
2022/09/15 16:11:34;;;;;;;3.83;2.90;;;;;;;19.76;57.29;99026.28;12203364;19;20434;-79
2022/09/15 16:15:39;;;;;;;5.57;3.20;;;;;;;19.71;57.53;99034.84;12224489;19;20011;-80
2022/09/15 16:19:44;;;;;;;4.07;2.90;;;;;;;19.62;58.30;99033.16;12202251;19;20014;-79
2022/09/15 16:23:46;;;;;;;4.15;2.60;;;;;;;19.47;60.13;99034.47;12222981;19;20422;-78
2022/09/15 16:27:47;;;;;;;6.38;2.83;;;;;;;19.24;60.33;99036.59;12221540;19;20030;-79
2022/09/15 16:31:49;;;;;;;5.53;2.53;;;;;;;19.09;60.47;99037.88;12203013;19;20042;-79
2022/09/15 16:36:02;;;;;;;6.10;2.80;;;;;;;18.96;61.51;99042.44;12224913;19;20030;-78
2022/09/15 16:40:04;;;;;;;4.07;2.42;;;;;;;18.82;61.30;99042.56;12221254;19;20017;-79
2022/09/15 16:44:16;;;;;;;7.32;2.95;;;;;;;18.66;62.30;99039.38;12199101;19;20712;-77
2022/09/15 16:48:18;;;;;;;5.50;2.45;;;;;;;18.57;62.28;99043.28;12220544;19;20111;-78
2022/09/15 16:52:19;;;;;;;4.27;2.27;;;;;;;18.46;62.28;99045.50;12218936;19;20042;-78
2022/09/15 16:56:25;;;;;;;3.65;2.70;;;;;;;18.40;62.37;99044.81;12197951;19;20332;-78
2022/09/15 17:00:29;;;;;;;3.47;2.17;;;;;;;18.37;63.03;99045.47;12217947;19;20002;-78
2022/09/15 17:04:31;;;;;;;3.83;2.60;;;;;;;18.39;63.46;99051.56;12223052;19;20007;-79
2022/09/15 17:08:34;;;;;;;4.25;2.40;;;;;;;18.40;63.70;99049.56;12198820;19;20011;-79
2022/09/15 17:12:37;;;;;;;4.55;2.75;;;;;;;18.38;63.92;99049.91;12219061;19;20003;-79
2022/09/15 17:16:38;;;;;;;5.65;2.38;;;;;;;18.35;64.38;99056.13;12198606;19;20014;-77
2022/09/15 17:20:42;;;;;;;;;;;;;;;18.27;64.84;99053.28;12223454;19;20010;-79
2022/09/15 17:24:43;;;;;;;7.93;2.85;;;;;;;18.21;67.04;99055.38;12221727;19;20332;-78
2022/09/15 17:28:45;;;;;;;10.40;3.33;;;;;;;18.11;70.32;99050.06;12201443;19;20066;-77
2022/09/15 17:32:48;;;;;;;7.47;3.20;;;;;;;18.01;72.91;99059.50;12219276;19;20041;-77
2022/09/15 17:36:50;;;;;;;4.88;2.63;;;;;;;17.87;74.33;99062.34;12220591;19;20007;-78
2022/09/15 17:40:54;;;;;;;4.45;3.00;;;;;;;17.76;75.34;99061.78;12199874;19;20089;-78
2022/09/15 17:44:55;;;;;;;7.03;3.40;;;;;;;17.66;76.76;99056.41;12220767;19;20015;-77
2022/09/15 17:48:57;;;;;;;7.15;3.45;;;;;;;17.57;77.72;99055.53;12221067;19;20011;-78
2022/09/15 17:52:59;;;;;;;8.52;3.38;;;;;;;17.48;79.31;99060.19;12201081;19;20014;-78
2022/09/15 17:57:01;;;;;;;5.83;3.07;;;;;;;17.38;80.17;99060.44;12219291;19;20010;-79
2022/09/15 18:01:02;;;;;;;9.75;2.78;;;;;;;17.31;80.72;99060.84;12219234;19;20749;-78
2022/09/15 18:05:05;;;;;;;;;;;;;;;17.23;81.53;99059.66;12194064;19;20019;-78
2022/09/15 18:09:07;;;;;;;6.70;3.50;;;;;;;17.17;81.75;99065.66;12224175;19;19911;-78
2022/09/15 18:13:14;;;;;;;5.63;3.50;;;;;;;17.12;83.44;99069.34;12228344;19;20011;-79
2022/09/15 18:17:16;;;;;;;5.25;3.72;;;;;;;17.08;84.27;99068.34;12211724;19;20007;-79
2022/09/15 18:21:27;;;;;;;9.13;3.78;;;;;;;17.04;85.67;99078.44;12227515;19;20018;-78
2022/09/15 18:25:35;;;;;;;8.45;3.85;;;;;;;17.01;85.53;99085.47;12218735;19;20014;-77
2022/09/15 18:29:42;;;;;;;11.95;3.80;;;;;;;17.01;86.09;99070.69;12202669;19;20007;-77
2022/09/15 18:33:43;;;;;;;5.05;4.00;;;;;;;17.01;86.89;99079.91;12217778;19;20683;-77
2022/09/15 18:37:47;;;;;;;12.73;4.63;;;;;;;17.01;87.80;99079.91;12190529;19;20006;-77
2022/09/15 18:41:49;;;;;;;8.18;3.97;;;;;;;17.02;88.28;99086.28;12216612;19;20347;-78
2022/09/15 18:45:53;;;;;;;8.93;4.30;;;;;;;17.00;89.44;99096.88;12211811;19;20010;-77
2022/09/15 18:49:57;;;;;;;9.82;4.53;;;;;;;16.99;90.36;99100.81;12192250;19;20011;-77
2022/09/15 18:54:00;;;;;;;7.03;3.92;;;;;;;16.98;90.74;99105.53;12218980;19;20367;-78